sensor_id;sensor_type;location;lat;lon;timestamp;P1;durP1;ratioP1;P2;durP2;ratioP2
51949;SDS011;37974;53.218;6.640;2023-05-10T00:00:33;13.25;;;8.38;;
51949;SDS011;37974;53.218;6.640;2023-05-10T00:02:59;12.38;;;8.82;;
51949;SDS011;37974;53.218;6.640;2023-05-10T00:05:25;11.50;;;10.13;;
51949;SDS011;37974;53.218;6.640;2023-05-10T00:07:50;17.65;;;11.25;;
51949;SDS011;37974;53.218;6.640;2023-05-10T00:10:16;11.40;;;10.18;;
51949;SDS011;37974;53.218;6.640;2023-05-10T00:12:42;11.45;;;10.25;;
51949;SDS011;37974;53.218;6.640;2023-05-10T00:15:08;13.48;;;11.18;;
51949;SDS011;37974;53.218;6.640;2023-05-10T00:17:34;11.75;;;10.43;;
51949;SDS011;37974;53.218;6.640;2023-05-10T00:20:00;13.07;;;10.98;;
51949;SDS011;37974;53.218;6.640;2023-05-10T00:22:25;14.23;;;11.18;;
51949;SDS011;37974;53.218;6.640;2023-05-10T00:24:51;14.50;;;11.02;;
51949;SDS011;37974;53.218;6.640;2023-05-10T00:27:17;14.02;;;11.02;;
51949;SDS011;37974;53.218;6.640;2023-05-10T00:29:42;14.98;;;12.45;;
51949;SDS011;37974;53.218;6.640;2023-05-10T00:32:08;17.50;;;12.23;;
51949;SDS011;37974;53.218;6.640;2023-05-10T00:34:34;15.32;;;11.80;;
51949;SDS011;37974;53.218;6.640;2023-05-10T00:36:59;16.17;;;11.20;;
51949;SDS011;37974;53.218;6.640;2023-05-10T00:39:25;12.95;;;9.85;;
51949;SDS011;37974;53.218;6.640;2023-05-10T00:41:53;10.63;;;8.73;;
51949;SDS011;37974;53.218;6.640;2023-05-10T00:44:19;13.40;;;9.23;;
51949;SDS011;37974;53.218;6.640;2023-05-10T00:46:45;10.82;;;9.10;;
51949;SDS011;37974;53.218;6.640;2023-05-10T00:49:12;11.00;;;9.15;;
51949;SDS011;37974;53.218;6.640;2023-05-10T00:51:37;12.07;;;8.63;;
51949;SDS011;37974;53.218;6.640;2023-05-10T00:54:03;11.13;;;8.57;;
51949;SDS011;37974;53.218;6.640;2023-05-10T00:56:30;11.77;;;7.50;;
51949;SDS011;37974;53.218;6.640;2023-05-10T00:58:56;13.63;;;8.68;;
51949;SDS011;37974;53.218;6.640;2023-05-10T01:01:22;10.25;;;8.13;;
51949;SDS011;37974;53.218;6.640;2023-05-10T01:03:48;8.70;;;7.15;;
51949;SDS011;37974;53.218;6.640;2023-05-10T01:06:13;10.55;;;7.88;;
51949;SDS011;37974;53.218;6.640;2023-05-10T01:08:39;9.52;;;7.65;;
51949;SDS011;37974;53.218;6.640;2023-05-10T01:11:05;9.20;;;7.22;;
51949;SDS011;37974;53.218;6.640;2023-05-10T01:13:33;9.82;;;7.15;;
51949;SDS011;37974;53.218;6.640;2023-05-10T01:16:01;9.68;;;7.70;;
51949;SDS011;37974;53.218;6.640;2023-05-10T01:18:28;11.15;;;7.90;;
51949;SDS011;37974;53.218;6.640;2023-05-10T01:21:00;9.32;;;7.50;;
51949;SDS011;37974;53.218;6.640;2023-05-10T01:26:30;8.55;;;6.95;;
51949;SDS011;37974;53.218;6.640;2023-05-10T01:34:46;10.63;;;7.23;;
51949;SDS011;37974;53.218;6.640;2023-05-10T01:39:59;8.75;;;7.18;;
51949;SDS011;37974;53.218;6.640;2023-05-10T01:42:35;9.80;;;6.85;;
51949;SDS011;37974;53.218;6.640;2023-05-10T01:45:08;8.18;;;7.07;;
51949;SDS011;37974;53.218;6.640;2023-05-10T01:47:52;8.32;;;6.45;;
51949;SDS011;37974;53.218;6.640;2023-05-10T01:50:27;11.90;;;7.95;;
51949;SDS011;37974;53.218;6.640;2023-05-10T01:52:55;9.45;;;7.93;;
51949;SDS011;37974;53.218;6.640;2023-05-10T01:55:24;11.13;;;7.10;;
51949;SDS011;37974;53.218;6.640;2023-05-10T01:57:53;8.93;;;7.25;;
51949;SDS011;37974;53.218;6.640;2023-05-10T02:00:26;8.95;;;7.72;;
51949;SDS011;37974;53.218;6.640;2023-05-10T02:02:53;10.57;;;8.45;;
51949;SDS011;37974;53.218;6.640;2023-05-10T02:05:20;10.43;;;7.85;;
51949;SDS011;37974;53.218;6.640;2023-05-10T02:07:47;10.52;;;8.27;;
51949;SDS011;37974;53.218;6.640;2023-05-10T02:10:15;10.30;;;8.05;;
51949;SDS011;37974;53.218;6.640;2023-05-10T02:12:42;10.75;;;8.30;;
51949;SDS011;37974;53.218;6.640;2023-05-10T02:15:11;14.60;;;8.40;;
51949;SDS011;37974;53.218;6.640;2023-05-10T02:17:37;10.48;;;8.23;;
51949;SDS011;37974;53.218;6.640;2023-05-10T02:20:05;11.88;;;8.60;;
51949;SDS011;37974;53.218;6.640;2023-05-10T02:22:32;11.98;;;8.57;;
51949;SDS011;37974;53.218;6.640;2023-05-10T02:25:00;10.57;;;8.50;;
51949;SDS011;37974;53.218;6.640;2023-05-10T02:27:27;11.00;;;8.60;;
51949;SDS011;37974;53.218;6.640;2023-05-10T02:29:54;11.38;;;8.50;;
51949;SDS011;37974;53.218;6.640;2023-05-10T02:32:21;11.50;;;9.27;;
51949;SDS011;37974;53.218;6.640;2023-05-10T02:34:47;10.60;;;8.80;;
51949;SDS011;37974;53.218;6.640;2023-05-10T02:37:17;10.23;;;8.23;;
51949;SDS011;37974;53.218;6.640;2023-05-10T02:39:46;12.32;;;8.55;;
51949;SDS011;37974;53.218;6.640;2023-05-10T02:42:16;11.30;;;8.88;;
51949;SDS011;37974;53.218;6.640;2023-05-10T02:44:45;11.90;;;8.88;;
51949;SDS011;37974;53.218;6.640;2023-05-10T02:47:12;15.57;;;9.25;;
51949;SDS011;37974;53.218;6.640;2023-05-10T02:49:38;12.38;;;9.38;;
51949;SDS011;37974;53.218;6.640;2023-05-10T02:52:05;12.00;;;9.15;;
51949;SDS011;37974;53.218;6.640;2023-05-10T02:54:34;11.27;;;8.75;;
51949;SDS011;37974;53.218;6.640;2023-05-10T02:57:08;13.13;;;9.15;;
51949;SDS011;37974;53.218;6.640;2023-05-10T02:59:40;14.75;;;10.25;;
51949;SDS011;37974;53.218;6.640;2023-05-10T03:02:08;14.63;;;9.63;;
51949;SDS011;37974;53.218;6.640;2023-05-10T03:04:35;13.32;;;10.13;;
51949;SDS011;37974;53.218;6.640;2023-05-10T03:07:01;15.73;;;10.93;;
51949;SDS011;37974;53.218;6.640;2023-05-10T03:09:27;16.60;;;11.00;;
51949;SDS011;37974;53.218;6.640;2023-05-10T03:11:56;16.73;;;11.68;;
51949;SDS011;37974;53.218;6.640;2023-05-10T03:17:15;15.70;;;11.60;;
51949;SDS011;37974;53.218;6.640;2023-05-10T03:19:53;16.50;;;12.13;;
51949;SDS011;37974;53.218;6.640;2023-05-10T03:22:23;15.63;;;12.57;;
51949;SDS011;37974;53.218;6.640;2023-05-10T03:24:55;19.95;;;12.55;;
51949;SDS011;37974;53.218;6.640;2023-05-10T03:27:23;18.98;;;13.63;;
51949;SDS011;37974;53.218;6.640;2023-05-10T03:29:51;20.08;;;14.00;;
51949;SDS011;37974;53.218;6.640;2023-05-10T03:32:18;16.27;;;12.48;;
51949;SDS011;37974;53.218;6.640;2023-05-10T03:34:44;18.65;;;13.55;;
51949;SDS011;37974;53.218;6.640;2023-05-10T03:37:10;20.90;;;13.55;;
51949;SDS011;37974;53.218;6.640;2023-05-10T03:39:36;20.52;;;13.93;;
51949;SDS011;37974;53.218;6.640;2023-05-10T03:42:01;18.38;;;13.50;;
51949;SDS011;37974;53.218;6.640;2023-05-10T03:44:27;20.50;;;13.88;;
51949;SDS011;37974;53.218;6.640;2023-05-10T03:46:53;19.35;;;13.70;;
51949;SDS011;37974;53.218;6.640;2023-05-10T03:49:19;20.80;;;14.10;;
51949;SDS011;37974;53.218;6.640;2023-05-10T03:51:44;16.88;;;12.18;;
51949;SDS011;37974;53.218;6.640;2023-05-10T03:54:10;21.25;;;14.45;;
51949;SDS011;37974;53.218;6.640;2023-05-10T03:56:36;21.73;;;14.63;;
51949;SDS011;37974;53.218;6.640;2023-05-10T03:59:01;22.08;;;14.95;;
51949;SDS011;37974;53.218;6.640;2023-05-10T04:01:32;25.98;;;15.35;;
51949;SDS011;37974;53.218;6.640;2023-05-10T04:03:58;25.50;;;15.07;;
51949;SDS011;37974;53.218;6.640;2023-05-10T04:06:24;26.00;;;16.65;;
51949;SDS011;37974;53.218;6.640;2023-05-10T04:08:50;24.70;;;15.65;;
51949;SDS011;37974;53.218;6.640;2023-05-10T04:11:15;29.25;;;17.35;;
51949;SDS011;37974;53.218;6.640;2023-05-10T04:13:41;27.50;;;16.80;;
51949;SDS011;37974;53.218;6.640;2023-05-10T04:16:08;25.45;;;16.48;;
51949;SDS011;37974;53.218;6.640;2023-05-10T04:18:33;24.35;;;16.63;;
51949;SDS011;37974;53.218;6.640;2023-05-10T04:20:59;26.60;;;17.13;;
51949;SDS011;37974;53.218;6.640;2023-05-10T04:23:26;25.48;;;15.43;;
51949;SDS011;37974;53.218;6.640;2023-05-10T04:25:52;24.60;;;14.60;;
51949;SDS011;37974;53.218;6.640;2023-05-10T04:28:23;23.10;;;13.93;;
51949;SDS011;37974;53.218;6.640;2023-05-10T04:30:49;15.73;;;9.23;;
51949;SDS011;37974;53.218;6.640;2023-05-10T04:33:15;13.25;;;8.32;;
51949;SDS011;37974;53.218;6.640;2023-05-10T04:35:40;15.35;;;8.88;;
51949;SDS011;37974;53.218;6.640;2023-05-10T04:38:06;10.57;;;7.88;;
51949;SDS011;37974;53.218;6.640;2023-05-10T04:40:32;12.18;;;7.70;;
51949;SDS011;37974;53.218;6.640;2023-05-10T04:42:58;9.40;;;7.07;;
51949;SDS011;37974;53.218;6.640;2023-05-10T04:45:23;8.48;;;6.93;;
51949;SDS011;37974;53.218;6.640;2023-05-10T04:47:49;10.93;;;8.63;;
51949;SDS011;37974;53.218;6.640;2023-05-10T04:50:15;10.63;;;7.82;;
51949;SDS011;37974;53.218;6.640;2023-05-10T04:52:40;10.70;;;8.13;;
51949;SDS011;37974;53.218;6.640;2023-05-10T04:55:06;12.90;;;7.68;;
51949;SDS011;37974;53.218;6.640;2023-05-10T04:57:34;9.90;;;6.28;;
51949;SDS011;37974;53.218;6.640;2023-05-10T05:00:00;12.57;;;6.43;;
51949;SDS011;37974;53.218;6.640;2023-05-10T05:02:25;8.90;;;5.97;;
51949;SDS011;37974;53.218;6.640;2023-05-10T05:04:51;11.27;;;5.38;;
51949;SDS011;37974;53.218;6.640;2023-05-10T05:07:17;8.85;;;5.78;;
51949;SDS011;37974;53.218;6.640;2023-05-10T05:09:42;7.88;;;5.07;;
51949;SDS011;37974;53.218;6.640;2023-05-10T05:12:08;12.07;;;5.53;;
51949;SDS011;37974;53.218;6.640;2023-05-10T05:14:38;9.32;;;5.22;;
51949;SDS011;37974;53.218;6.640;2023-05-10T05:17:05;7.20;;;5.28;;
51949;SDS011;37974;53.218;6.640;2023-05-10T05:19:31;8.15;;;5.40;;
51949;SDS011;37974;53.218;6.640;2023-05-10T05:21:56;8.23;;;5.25;;
51949;SDS011;37974;53.218;6.640;2023-05-10T05:24:32;9.45;;;5.88;;
51949;SDS011;37974;53.218;6.640;2023-05-10T05:27:01;7.60;;;5.53;;
51949;SDS011;37974;53.218;6.640;2023-05-10T05:29:27;6.43;;;5.00;;
51949;SDS011;37974;53.218;6.640;2023-05-10T05:31:52;6.80;;;4.60;;
51949;SDS011;37974;53.218;6.640;2023-05-10T05:34:18;8.25;;;5.25;;
51949;SDS011;37974;53.218;6.640;2023-05-10T05:36:45;7.30;;;5.32;;
51949;SDS011;37974;53.218;6.640;2023-05-10T05:39:11;8.95;;;5.68;;
51949;SDS011;37974;53.218;6.640;2023-05-10T05:41:36;7.25;;;5.32;;
51949;SDS011;37974;53.218;6.640;2023-05-10T05:44:02;7.95;;;5.72;;
51949;SDS011;37974;53.218;6.640;2023-05-10T05:46:28;8.43;;;5.35;;
51949;SDS011;37974;53.218;6.640;2023-05-10T05:48:53;8.05;;;5.70;;
51949;SDS011;37974;53.218;6.640;2023-05-10T05:51:20;7.40;;;5.45;;
51949;SDS011;37974;53.218;6.640;2023-05-10T05:53:45;8.18;;;5.07;;
51949;SDS011;37974;53.218;6.640;2023-05-10T05:56:11;8.70;;;4.90;;
51949;SDS011;37974;53.218;6.640;2023-05-10T05:58:37;7.32;;;4.60;;
51949;SDS011;37974;53.218;6.640;2023-05-10T06:01:02;7.85;;;4.63;;
51949;SDS011;37974;53.218;6.640;2023-05-10T06:03:31;6.82;;;4.20;;
51949;SDS011;37974;53.218;6.640;2023-05-10T06:05:57;8.25;;;4.55;;
51949;SDS011;37974;53.218;6.640;2023-05-10T06:08:23;6.65;;;4.13;;
51949;SDS011;37974;53.218;6.640;2023-05-10T06:10:55;5.25;;;3.70;;
51949;SDS011;37974;53.218;6.640;2023-05-10T06:13:23;7.70;;;3.38;;
51949;SDS011;37974;53.218;6.640;2023-05-10T06:15:49;6.60;;;3.50;;
51949;SDS011;37974;53.218;6.640;2023-05-10T06:18:16;6.80;;;3.03;;
51949;SDS011;37974;53.218;6.640;2023-05-10T06:20:42;5.50;;;3.00;;
51949;SDS011;37974;53.218;6.640;2023-05-10T06:23:08;4.25;;;1.98;;
51949;SDS011;37974;53.218;6.640;2023-05-10T06:25:33;3.25;;;1.65;;
51949;SDS011;37974;53.218;6.640;2023-05-10T06:27:59;2.60;;;1.00;;
51949;SDS011;37974;53.218;6.640;2023-05-10T06:30:25;1.70;;;0.73;;
51949;SDS011;37974;53.218;6.640;2023-05-10T06:32:53;0.90;;;0.60;;
51949;SDS011;37974;53.218;6.640;2023-05-10T06:35:19;1.13;;;0.60;;
51949;SDS011;37974;53.218;6.640;2023-05-10T06:37:45;2.03;;;0.60;;
51949;SDS011;37974;53.218;6.640;2023-05-10T06:40:11;1.98;;;0.90;;
51949;SDS011;37974;53.218;6.640;2023-05-10T06:42:37;5.38;;;0.80;;
51949;SDS011;37974;53.218;6.640;2023-05-10T06:45:03;3.65;;;1.42;;
51949;SDS011;37974;53.218;6.640;2023-05-10T06:47:29;6.25;;;3.72;;
51949;SDS011;37974;53.218;6.640;2023-05-10T06:49:54;8.77;;;4.97;;
51949;SDS011;37974;53.218;6.640;2023-05-10T06:52:20;10.90;;;5.53;;
51949;SDS011;37974;53.218;6.640;2023-05-10T06:54:46;12.77;;;7.25;;
51949;SDS011;37974;53.218;6.640;2023-05-10T06:57:12;9.43;;;6.10;;
51949;SDS011;37974;53.218;6.640;2023-05-10T06:59:37;8.52;;;5.93;;
51949;SDS011;37974;53.218;6.640;2023-05-10T07:02:03;8.18;;;5.25;;
51949;SDS011;37974;53.218;6.640;2023-05-10T07:04:29;8.27;;;6.20;;
51949;SDS011;37974;53.218;6.640;2023-05-10T07:06:55;11.27;;;6.85;;
51949;SDS011;37974;53.218;6.640;2023-05-10T07:09:21;11.25;;;6.95;;
51949;SDS011;37974;53.218;6.640;2023-05-10T07:11:46;11.60;;;7.47;;
51949;SDS011;37974;53.218;6.640;2023-05-10T07:14:12;9.63;;;7.20;;
51949;SDS011;37974;53.218;6.640;2023-05-10T07:16:38;12.18;;;7.70;;
51949;SDS011;37974;53.218;6.640;2023-05-10T07:19:03;9.77;;;7.25;;
51949;SDS011;37974;53.218;6.640;2023-05-10T07:21:30;11.63;;;8.07;;
51949;SDS011;37974;53.218;6.640;2023-05-10T07:23:56;11.38;;;8.00;;
51949;SDS011;37974;53.218;6.640;2023-05-10T07:26:22;12.18;;;7.85;;
51949;SDS011;37974;53.218;6.640;2023-05-10T07:28:48;12.02;;;7.20;;
51949;SDS011;37974;53.218;6.640;2023-05-10T07:31:13;11.95;;;7.10;;
51949;SDS011;37974;53.218;6.640;2023-05-10T07:33:39;12.07;;;7.65;;
51949;SDS011;37974;53.218;6.640;2023-05-10T07:36:05;8.18;;;5.30;;
51949;SDS011;37974;53.218;6.640;2023-05-10T07:38:31;6.68;;;4.65;;
51949;SDS011;37974;53.218;6.640;2023-05-10T07:40:56;7.85;;;5.43;;
51949;SDS011;37974;53.218;6.640;2023-05-10T07:43:22;5.75;;;4.03;;
51949;SDS011;37974;53.218;6.640;2023-05-10T07:45:48;5.38;;;3.50;;
51949;SDS011;37974;53.218;6.640;2023-05-10T07:48:13;6.60;;;3.45;;
51949;SDS011;37974;53.218;6.640;2023-05-10T07:50:39;4.65;;;2.78;;
51949;SDS011;37974;53.218;6.640;2023-05-10T07:53:05;4.47;;;2.90;;
51949;SDS011;37974;53.218;6.640;2023-05-10T07:55:31;5.00;;;2.33;;
51949;SDS011;37974;53.218;6.640;2023-05-10T07:57:57;3.50;;;2.05;;
51949;SDS011;37974;53.218;6.640;2023-05-10T08:00:22;2.90;;;2.00;;
51949;SDS011;37974;53.218;6.640;2023-05-10T08:02:48;3.97;;;2.13;;
51949;SDS011;37974;53.218;6.640;2023-05-10T08:05:14;4.28;;;1.90;;
51949;SDS011;37974;53.218;6.640;2023-05-10T08:07:40;2.72;;;1.65;;
51949;SDS011;37974;53.218;6.640;2023-05-10T08:10:06;5.93;;;2.20;;
51949;SDS011;37974;53.218;6.640;2023-05-10T08:12:32;3.78;;;2.50;;
51949;SDS011;37974;53.218;6.640;2023-05-10T08:14:58;3.80;;;2.60;;
51949;SDS011;37974;53.218;6.640;2023-05-10T08:17:23;4.28;;;3.13;;
51949;SDS011;37974;53.218;6.640;2023-05-10T08:19:49;7.10;;;4.35;;
51949;SDS011;37974;53.218;6.640;2023-05-10T08:22:15;5.20;;;3.38;;
51949;SDS011;37974;53.218;6.640;2023-05-10T08:24:41;6.75;;;3.30;;
51949;SDS011;37974;53.218;6.640;2023-05-10T08:27:08;6.00;;;3.60;;
51949;SDS011;37974;53.218;6.640;2023-05-10T08:29:34;4.82;;;3.50;;
51949;SDS011;37974;53.218;6.640;2023-05-10T08:31:59;5.63;;;4.00;;
51949;SDS011;37974;53.218;6.640;2023-05-10T08:34:26;6.30;;;3.70;;
51949;SDS011;37974;53.218;6.640;2023-05-10T08:36:52;5.88;;;3.13;;
51949;SDS011;37974;53.218;6.640;2023-05-10T08:39:18;6.50;;;3.22;;
51949;SDS011;37974;53.218;6.640;2023-05-10T08:41:44;4.40;;;3.10;;
51949;SDS011;37974;53.218;6.640;2023-05-10T08:44:11;6.32;;;2.80;;
51949;SDS011;37974;53.218;6.640;2023-05-10T08:46:38;5.38;;;3.00;;
51949;SDS011;37974;53.218;6.640;2023-05-10T08:49:09;4.70;;;3.08;;
51949;SDS011;37974;53.218;6.640;2023-05-10T08:51:40;4.18;;;3.00;;
51949;SDS011;37974;53.218;6.640;2023-05-10T08:54:09;6.55;;;3.92;;
51949;SDS011;37974;53.218;6.640;2023-05-10T08:56:35;6.43;;;4.47;;
51949;SDS011;37974;53.218;6.640;2023-05-10T08:59:01;6.75;;;4.15;;
51949;SDS011;37974;53.218;6.640;2023-05-10T09:01:27;6.78;;;3.67;;
51949;SDS011;37974;53.218;6.640;2023-05-10T09:03:56;5.57;;;3.33;;
51949;SDS011;37974;53.218;6.640;2023-05-10T09:06:23;7.32;;;3.80;;
51949;SDS011;37974;53.218;6.640;2023-05-10T09:08:49;4.65;;;3.15;;
51949;SDS011;37974;53.218;6.640;2023-05-10T09:11:15;5.55;;;3.50;;
51949;SDS011;37974;53.218;6.640;2023-05-10T09:13:42;5.93;;;3.80;;
51949;SDS011;37974;53.218;6.640;2023-05-10T09:16:08;6.85;;;3.90;;
51949;SDS011;37974;53.218;6.640;2023-05-10T09:18:34;7.25;;;3.88;;
51949;SDS011;37974;53.218;6.640;2023-05-10T09:21:00;8.10;;;3.65;;
51949;SDS011;37974;53.218;6.640;2023-05-10T09:23:26;20.92;;;5.05;;
51949;SDS011;37974;53.218;6.640;2023-05-10T09:26:01;5.28;;;2.95;;
51949;SDS011;37974;53.218;6.640;2023-05-10T09:28:33;4.80;;;2.90;;
51949;SDS011;37974;53.218;6.640;2023-05-10T09:31:14;6.47;;;3.00;;
51949;SDS011;37974;53.218;6.640;2023-05-10T09:33:44;4.78;;;3.28;;
51949;SDS011;37974;53.218;6.640;2023-05-10T09:36:11;4.93;;;3.15;;
51949;SDS011;37974;53.218;6.640;2023-05-10T09:38:45;6.47;;;3.53;;
51949;SDS011;37974;53.218;6.640;2023-05-10T09:41:18;7.40;;;3.95;;
51949;SDS011;37974;53.218;6.640;2023-05-10T09:43:45;9.23;;;4.18;;
51949;SDS011;37974;53.218;6.640;2023-05-10T09:46:11;6.60;;;3.97;;
51949;SDS011;37974;53.218;6.640;2023-05-10T09:48:42;6.15;;;4.03;;
51949;SDS011;37974;53.218;6.640;2023-05-10T09:51:09;5.15;;;3.92;;
51949;SDS011;37974;53.218;6.640;2023-05-10T09:53:36;6.85;;;4.00;;
51949;SDS011;37974;53.218;6.640;2023-05-10T09:56:01;6.30;;;3.55;;
51949;SDS011;37974;53.218;6.640;2023-05-10T09:58:27;6.00;;;3.70;;
51949;SDS011;37974;53.218;6.640;2023-05-10T10:00:53;5.28;;;3.55;;
51949;SDS011;37974;53.218;6.640;2023-05-10T10:03:20;5.97;;;3.63;;
51949;SDS011;37974;53.218;6.640;2023-05-10T10:05:46;5.25;;;3.40;;
51949;SDS011;37974;53.218;6.640;2023-05-10T10:08:13;5.38;;;3.60;;
51949;SDS011;37974;53.218;6.640;2023-05-10T10:10:40;7.97;;;3.50;;
51949;SDS011;37974;53.218;6.640;2023-05-10T10:13:07;5.30;;;3.22;;
51949;SDS011;37974;53.218;6.640;2023-05-10T10:15:33;5.68;;;3.00;;
51949;SDS011;37974;53.218;6.640;2023-05-10T10:18:00;5.90;;;2.70;;
51949;SDS011;37974;53.218;6.640;2023-05-10T10:20:26;6.40;;;2.97;;
51949;SDS011;37974;53.218;6.640;2023-05-10T10:22:53;5.85;;;2.40;;
51949;SDS011;37974;53.218;6.640;2023-05-10T10:25:19;4.07;;;2.53;;
51949;SDS011;37974;53.218;6.640;2023-05-10T10:27:49;5.45;;;2.63;;
51949;SDS011;37974;53.218;6.640;2023-05-10T10:30:35;6.13;;;2.67;;
51949;SDS011;37974;53.218;6.640;2023-05-10T10:33:26;5.53;;;2.60;;
51949;SDS011;37974;53.218;6.640;2023-05-10T10:36:01;3.90;;;2.50;;
51949;SDS011;37974;53.218;6.640;2023-05-10T10:38:36;3.70;;;2.40;;
51949;SDS011;37974;53.218;6.640;2023-05-10T10:41:09;4.35;;;2.50;;
51949;SDS011;37974;53.218;6.640;2023-05-10T10:43:36;3.90;;;2.25;;
51949;SDS011;37974;53.218;6.640;2023-05-10T10:46:18;4.53;;;2.08;;
51949;SDS011;37974;53.218;6.640;2023-05-10T10:48:48;4.85;;;1.95;;
51949;SDS011;37974;53.218;6.640;2023-05-10T10:51:16;5.03;;;1.90;;
51949;SDS011;37974;53.218;6.640;2023-05-10T10:53:42;2.97;;;1.73;;
51949;SDS011;37974;53.218;6.640;2023-05-10T10:56:09;2.95;;;1.50;;
51949;SDS011;37974;53.218;6.640;2023-05-10T10:58:38;3.45;;;2.03;;
51949;SDS011;37974;53.218;6.640;2023-05-10T11:01:15;3.85;;;2.00;;
51949;SDS011;37974;53.218;6.640;2023-05-10T11:06:28;4.75;;;2.67;;
51949;SDS011;37974;53.218;6.640;2023-05-10T11:08:57;4.60;;;2.70;;
51949;SDS011;37974;53.218;6.640;2023-05-10T11:11:24;4.53;;;3.00;;
51949;SDS011;37974;53.218;6.640;2023-05-10T11:13:50;5.07;;;3.00;;
51949;SDS011;37974;53.218;6.640;2023-05-10T11:16:20;6.65;;;3.55;;
51949;SDS011;37974;53.218;6.640;2023-05-10T11:18:53;7.70;;;3.47;;
51949;SDS011;37974;53.218;6.640;2023-05-10T11:21:33;5.45;;;4.00;;
51949;SDS011;37974;53.218;6.640;2023-05-10T11:24:12;6.10;;;4.07;;
51949;SDS011;37974;53.218;6.640;2023-05-10T11:26:39;5.93;;;3.90;;
51949;SDS011;37974;53.218;6.640;2023-05-10T11:29:06;6.95;;;4.20;;
51949;SDS011;37974;53.218;6.640;2023-05-10T11:31:32;7.82;;;4.93;;
51949;SDS011;37974;53.218;6.640;2023-05-10T11:33:58;7.32;;;4.93;;
51949;SDS011;37974;53.218;6.640;2023-05-10T11:36:27;8.20;;;5.60;;
51949;SDS011;37974;53.218;6.640;2023-05-10T11:38:54;8.25;;;5.90;;
51949;SDS011;37974;53.218;6.640;2023-05-10T11:41:21;9.32;;;5.68;;
51949;SDS011;37974;53.218;6.640;2023-05-10T11:43:49;7.75;;;5.13;;
51949;SDS011;37974;53.218;6.640;2023-05-10T11:46:19;8.45;;;5.50;;
51949;SDS011;37974;53.218;6.640;2023-05-10T11:48:50;10.02;;;5.75;;
51949;SDS011;37974;53.218;6.640;2023-05-10T11:51:20;9.48;;;5.68;;
51949;SDS011;37974;53.218;6.640;2023-05-10T11:53:48;11.75;;;6.68;;
51949;SDS011;37974;53.218;6.640;2023-05-10T11:56:15;10.55;;;6.22;;
51949;SDS011;37974;53.218;6.640;2023-05-10T11:58:41;9.75;;;5.88;;
51949;SDS011;37974;53.218;6.640;2023-05-10T12:01:07;9.40;;;6.22;;
51949;SDS011;37974;53.218;6.640;2023-05-10T12:03:34;10.73;;;6.43;;
51949;SDS011;37974;53.218;6.640;2023-05-10T12:06:00;9.55;;;6.25;;
51949;SDS011;37974;53.218;6.640;2023-05-10T12:08:27;12.32;;;6.60;;
51949;SDS011;37974;53.218;6.640;2023-05-10T12:11:03;8.65;;;5.93;;
51949;SDS011;37974;53.218;6.640;2023-05-10T12:13:37;10.82;;;6.10;;
51949;SDS011;37974;53.218;6.640;2023-05-10T12:16:16;13.30;;;5.95;;
51949;SDS011;37974;53.218;6.640;2023-05-10T12:18:42;9.15;;;5.88;;
51949;SDS011;37974;53.218;6.640;2023-05-10T12:21:11;11.68;;;5.90;;
51949;SDS011;37974;53.218;6.640;2023-05-10T12:23:38;9.05;;;6.18;;
51949;SDS011;37974;53.218;6.640;2023-05-10T12:26:04;9.35;;;6.68;;
51949;SDS011;37974;53.218;6.640;2023-05-10T12:28:31;9.80;;;7.10;;
51949;SDS011;37974;53.218;6.640;2023-05-10T12:30:58;9.35;;;6.82;;
51949;SDS011;37974;53.218;6.640;2023-05-10T12:33:24;12.57;;;7.70;;
51949;SDS011;37974;53.218;6.640;2023-05-10T12:35:52;12.48;;;8.38;;
51949;SDS011;37974;53.218;6.640;2023-05-10T12:38:23;12.02;;;7.72;;
51949;SDS011;37974;53.218;6.640;2023-05-10T12:40:54;10.57;;;7.75;;
51949;SDS011;37974;53.218;6.640;2023-05-10T12:43:22;12.55;;;7.57;;
51949;SDS011;37974;53.218;6.640;2023-05-10T12:45:48;13.85;;;9.05;;
51949;SDS011;37974;53.218;6.640;2023-05-10T12:48:14;11.82;;;8.50;;
51949;SDS011;37974;53.218;6.640;2023-05-10T12:50:40;13.55;;;8.60;;
51949;SDS011;37974;53.218;6.640;2023-05-10T12:53:06;12.70;;;8.00;;
51949;SDS011;37974;53.218;6.640;2023-05-10T12:55:32;11.88;;;8.40;;
51949;SDS011;37974;53.218;6.640;2023-05-10T12:57:58;9.75;;;8.15;;
51949;SDS011;37974;53.218;6.640;2023-05-10T13:00:23;12.00;;;8.40;;
51949;SDS011;37974;53.218;6.640;2023-05-10T13:02:49;15.13;;;8.68;;
51949;SDS011;37974;53.218;6.640;2023-05-10T13:05:15;13.90;;;8.60;;
51949;SDS011;37974;53.218;6.640;2023-05-10T13:07:40;10.60;;;8.35;;
51949;SDS011;37974;53.218;6.640;2023-05-10T13:10:08;11.95;;;8.50;;
51949;SDS011;37974;53.218;6.640;2023-05-10T13:12:35;10.30;;;8.00;;
51949;SDS011;37974;53.218;6.640;2023-05-10T13:15:01;9.60;;;7.72;;
51949;SDS011;37974;53.218;6.640;2023-05-10T13:17:28;11.60;;;7.38;;
51949;SDS011;37974;53.218;6.640;2023-05-10T13:19:54;11.50;;;8.20;;
51949;SDS011;37974;53.218;6.640;2023-05-10T13:22:20;13.00;;;7.90;;
51949;SDS011;37974;53.218;6.640;2023-05-10T13:24:45;9.82;;;7.32;;
51949;SDS011;37974;53.218;6.640;2023-05-10T13:27:11;9.23;;;6.50;;
51949;SDS011;37974;53.218;6.640;2023-05-10T13:29:39;9.82;;;6.32;;
51949;SDS011;37974;53.218;6.640;2023-05-10T13:32:05;9.52;;;6.13;;
51949;SDS011;37974;53.218;6.640;2023-05-10T13:34:31;11.80;;;7.45;;
51949;SDS011;37974;53.218;6.640;2023-05-10T13:36:56;10.27;;;6.93;;
51949;SDS011;37974;53.218;6.640;2023-05-10T13:39:23;11.38;;;6.80;;
51949;SDS011;37974;53.218;6.640;2023-05-10T13:41:49;10.32;;;6.55;;
51949;SDS011;37974;53.218;6.640;2023-05-10T13:44:14;12.10;;;7.28;;
51949;SDS011;37974;53.218;6.640;2023-05-10T13:46:41;11.30;;;7.30;;
51949;SDS011;37974;53.218;6.640;2023-05-10T13:49:08;11.20;;;7.13;;
51949;SDS011;37974;53.218;6.640;2023-05-10T13:51:35;9.55;;;7.30;;
51949;SDS011;37974;53.218;6.640;2023-05-10T13:54:01;10.00;;;6.70;;
51949;SDS011;37974;53.218;6.640;2023-05-10T13:56:27;10.77;;;6.95;;
51949;SDS011;37974;53.218;6.640;2023-05-10T13:58:53;9.65;;;6.20;;
51949;SDS011;37974;53.218;6.640;2023-05-10T14:01:22;10.18;;;5.70;;
51949;SDS011;37974;53.218;6.640;2023-05-10T14:03:48;8.93;;;6.35;;
51949;SDS011;37974;53.218;6.640;2023-05-10T14:06:14;11.07;;;6.68;;
51949;SDS011;37974;53.218;6.640;2023-05-10T14:08:39;9.45;;;6.35;;
51949;SDS011;37974;53.218;6.640;2023-05-10T14:11:06;8.80;;;5.55;;
51949;SDS011;37974;53.218;6.640;2023-05-10T14:13:32;9.95;;;6.47;;
51949;SDS011;37974;53.218;6.640;2023-05-10T14:15:58;10.52;;;7.00;;
51949;SDS011;37974;53.218;6.640;2023-05-10T14:18:26;8.50;;;6.40;;
51949;SDS011;37974;53.218;6.640;2023-05-10T14:20:52;7.90;;;6.50;;
51949;SDS011;37974;53.218;6.640;2023-05-10T14:23:17;9.88;;;6.82;;
51949;SDS011;37974;53.218;6.640;2023-05-10T14:25:48;9.30;;;6.45;;
51949;SDS011;37974;53.218;6.640;2023-05-10T14:28:15;8.75;;;6.38;;
51949;SDS011;37974;53.218;6.640;2023-05-10T14:30:42;12.68;;;7.68;;
51949;SDS011;37974;53.218;6.640;2023-05-10T14:33:08;9.18;;;6.90;;
51949;SDS011;37974;53.218;6.640;2023-05-10T14:35:34;12.73;;;7.35;;
51949;SDS011;37974;53.218;6.640;2023-05-10T14:38:01;10.80;;;7.35;;
51949;SDS011;37974;53.218;6.640;2023-05-10T14:40:28;11.05;;;6.53;;
51949;SDS011;37974;53.218;6.640;2023-05-10T14:42:54;10.50;;;7.25;;
51949;SDS011;37974;53.218;6.640;2023-05-10T14:45:21;9.18;;;7.15;;
51949;SDS011;37974;53.218;6.640;2023-05-10T14:47:48;11.43;;;6.60;;
51949;SDS011;37974;53.218;6.640;2023-05-10T14:50:14;10.52;;;7.28;;
51949;SDS011;37974;53.218;6.640;2023-05-10T14:52:41;11.40;;;7.90;;
51949;SDS011;37974;53.218;6.640;2023-05-10T14:55:07;12.30;;;7.60;;
51949;SDS011;37974;53.218;6.640;2023-05-10T14:57:33;10.73;;;7.25;;